sensor_id;sensor_type;location;lat;lon;timestamp;P1;durP1;ratioP1;P2;durP2;ratioP2
41532;SDS011;27262;-35.248;149.138;2022-11-02T00:03:47;1.98;;;0.10;;
41532;SDS011;27262;-35.248;149.138;2022-11-02T00:06:18;1.55;;;0.30;;
41532;SDS011;27262;-35.248;149.138;2022-11-02T00:08:48;0.35;;;0.20;;
41532;SDS011;27262;-35.248;149.138;2022-11-02T00:11:18;0.20;;;0.10;;
41532;SDS011;27262;-35.248;149.138;2022-11-02T00:13:49;1.13;;;0.30;;
41532;SDS011;27262;-35.248;149.138;2022-11-02T00:16:19;1.27;;;0.30;;
41532;SDS011;27262;-35.248;149.138;2022-11-02T00:18:52;4.78;;;0.40;;
41532;SDS011;27262;-35.248;149.138;2022-11-02T00:21:25;0.20;;;0.13;;
41532;SDS011;27262;-35.248;149.138;2022-11-02T00:23:56;1.25;;;0.40;;
41532;SDS011;27262;-35.248;149.138;2022-11-02T00:26:28;0.65;;;0.20;;
41532;SDS011;27262;-35.248;149.138;2022-11-02T00:29:00;0.47;;;0.15;;
41532;SDS011;27262;-35.248;149.138;2022-11-02T00:31:32;0.65;;;0.17;;
41532;SDS011;27262;-35.248;149.138;2022-11-02T00:34:02;0.20;;;0.10;;
41532;SDS011;27262;-35.248;149.138;2022-11-02T00:36:32;2.20;;;0.20;;
41532;SDS011;27262;-35.248;149.138;2022-11-02T00:39:02;0.88;;;0.10;;
41532;SDS011;27262;-35.248;149.138;2022-11-02T00:41:33;1.63;;;0.20;;
41532;SDS011;27262;-35.248;149.138;2022-11-02T00:44:03;1.45;;;0.10;;
41532;SDS011;27262;-35.248;149.138;2022-11-02T00:46:33;1.02;;;0.20;;
41532;SDS011;27262;-35.248;149.138;2022-11-02T00:49:03;3.28;;;0.30;;
41532;SDS011;27262;-35.248;149.138;2022-11-02T00:51:34;2.45;;;0.20;;
41532;SDS011;27262;-35.248;149.138;2022-11-02T00:54:04;2.40;;;0.30;;
41532;SDS011;27262;-35.248;149.138;2022-11-02T00:56:35;3.63;;;0.60;;
41532;SDS011;27262;-35.248;149.138;2022-11-02T00:59:06;1.48;;;0.40;;
41532;SDS011;27262;-35.248;149.138;2022-11-02T01:01:37;0.90;;;0.30;;
41532;SDS011;27262;-35.248;149.138;2022-11-02T01:04:07;4.53;;;0.45;;
41532;SDS011;27262;-35.248;149.138;2022-11-02T01:06:38;4.95;;;0.57;;
41532;SDS011;27262;-35.248;149.138;2022-11-02T01:09:10;1.30;;;0.30;;
41532;SDS011;27262;-35.248;149.138;2022-11-02T01:11:41;0.60;;;0.30;;
41532;SDS011;27262;-35.248;149.138;2022-11-02T01:14:12;7.97;;;0.47;;
41532;SDS011;27262;-35.248;149.138;2022-11-02T01:16:42;1.13;;;0.35;;
41532;SDS011;27262;-35.248;149.138;2022-11-02T01:19:12;4.50;;;0.40;;
41532;SDS011;27262;-35.248;149.138;2022-11-02T01:21:43;2.33;;;0.35;;
41532;SDS011;27262;-35.248;149.138;2022-11-02T01:24:13;1.23;;;0.20;;
41532;SDS011;27262;-35.248;149.138;2022-11-02T01:26:44;0.63;;;0.20;;
41532;SDS011;27262;-35.248;149.138;2022-11-02T01:29:17;5.10;;;0.35;;
41532;SDS011;27262;-35.248;149.138;2022-11-02T01:31:47;0.40;;;0.20;;
41532;SDS011;27262;-35.248;149.138;2022-11-02T01:34:20;0.57;;;0.20;;
41532;SDS011;27262;-35.248;149.138;2022-11-02T01:36:50;0.75;;;0.20;;
41532;SDS011;27262;-35.248;149.138;2022-11-02T01:39:20;1.55;;;0.30;;
41532;SDS011;27262;-35.248;149.138;2022-11-02T01:41:51;0.82;;;0.35;;
41532;SDS011;27262;-35.248;149.138;2022-11-02T01:44:26;1.55;;;0.35;;
41532;SDS011;27262;-35.248;149.138;2022-11-02T01:47:07;0.80;;;0.30;;
41532;SDS011;27262;-35.248;149.138;2022-11-02T01:49:46;2.00;;;0.30;;
41532;SDS011;27262;-35.248;149.138;2022-11-02T01:52:21;1.67;;;0.20;;
41532;SDS011;27262;-35.248;149.138;2022-11-02T01:55:11;5.68;;;0.60;;
41532;SDS011;27262;-35.248;149.138;2022-11-02T01:58:11;6.75;;;0.28;;
41532;SDS011;27262;-35.248;149.138;2022-11-02T02:00:41;0.77;;;0.30;;
41532;SDS011;27262;-35.248;149.138;2022-11-02T02:03:15;0.95;;;0.30;;
41532;SDS011;27262;-35.248;149.138;2022-11-02T02:05:52;0.57;;;0.25;;
41532;SDS011;27262;-35.248;149.138;2022-11-02T02:08:46;3.03;;;0.60;;
41532;SDS011;27262;-35.248;149.138;2022-11-02T02:11:31;0.40;;;0.20;;
41532;SDS011;27262;-35.248;149.138;2022-11-02T02:14:12;1.65;;;0.60;;
41532;SDS011;27262;-35.248;149.138;2022-11-02T02:19:57;0.10;;;0.10;;
41532;SDS011;27262;-35.248;149.138;2022-11-02T02:25:49;0.32;;;0.13;;
41532;SDS011;27262;-35.248;149.138;2022-11-02T02:28:52;0.32;;;0.20;;
41532;SDS011;27262;-35.248;149.138;2022-11-02T02:31:34;0.75;;;0.17;;
41532;SDS011;27262;-35.248;149.138;2022-11-02T02:34:19;0.30;;;0.20;;
41532;SDS011;27262;-35.248;149.138;2022-11-02T02:47:59;2.35;;;0.20;;
41532;SDS011;27262;-35.248;149.138;2022-11-02T02:51:10;2.42;;;0.43;;
41532;SDS011;27262;-35.248;149.138;2022-11-02T02:53:49;3.67;;;0.25;;
41532;SDS011;27262;-35.248;149.138;2022-11-02T02:56:22;3.50;;;0.40;;
41532;SDS011;27262;-35.248;149.138;2022-11-02T02:58:55;1.40;;;0.30;;
41532;SDS011;27262;-35.248;149.138;2022-11-02T03:01:29;1.55;;;0.40;;
41532;SDS011;27262;-35.248;149.138;2022-11-02T03:04:00;1.55;;;0.43;;
41532;SDS011;27262;-35.248;149.138;2022-11-02T03:06:31;2.15;;;0.30;;
41532;SDS011;27262;-35.248;149.138;2022-11-02T03:09:12;2.00;;;0.32;;
41532;SDS011;27262;-35.248;149.138;2022-11-02T03:17:19;4.65;;;0.60;;
41532;SDS011;27262;-35.248;149.138;2022-11-02T03:20:03;4.47;;;0.77;;
41532;SDS011;27262;-35.248;149.138;2022-11-02T03:28:10;4.40;;;1.08;;
41532;SDS011;27262;-35.248;149.138;2022-11-02T03:30:58;4.93;;;0.98;;
41532;SDS011;27262;-35.248;149.138;2022-11-02T03:33:52;7.85;;;1.35;;
41532;SDS011;27262;-35.248;149.138;2022-11-02T03:36:36;5.00;;;0.95;;
41532;SDS011;27262;-35.248;149.138;2022-11-02T03:39:13;5.13;;;0.98;;
41532;SDS011;27262;-35.248;149.138;2022-11-02T03:41:48;3.80;;;0.80;;
41532;SDS011;27262;-35.248;149.138;2022-11-02T03:44:21;6.28;;;0.90;;
41532;SDS011;27262;-35.248;149.138;2022-11-02T03:46:55;7.57;;;1.00;;
41532;SDS011;27262;-35.248;149.138;2022-11-02T03:49:28;3.85;;;0.73;;
41532;SDS011;27262;-35.248;149.138;2022-11-02T03:52:01;6.70;;;1.25;;
41532;SDS011;27262;-35.248;149.138;2022-11-02T03:57:17;6.88;;;1.00;;
41532;SDS011;27262;-35.248;149.138;2022-11-02T03:59:51;7.90;;;0.88;;
41532;SDS011;27262;-35.248;149.138;2022-11-02T04:02:22;4.85;;;0.88;;
41532;SDS011;27262;-35.248;149.138;2022-11-02T04:04:52;4.32;;;1.10;;
41532;SDS011;27262;-35.248;149.138;2022-11-02T04:07:23;4.22;;;0.70;;
41532;SDS011;27262;-35.248;149.138;2022-11-02T04:10:24;7.35;;;0.90;;
41532;SDS011;27262;-35.248;149.138;2022-11-02T04:12:54;5.07;;;1.00;;
41532;SDS011;27262;-35.248;149.138;2022-11-02T04:15:43;4.72;;;0.80;;
41532;SDS011;27262;-35.248;149.138;2022-11-02T04:18:13;2.78;;;0.60;;
41532;SDS011;27262;-35.248;149.138;2022-11-02T04:21:01;4.70;;;1.00;;
41532;SDS011;27262;-35.248;149.138;2022-11-02T04:23:31;4.53;;;0.80;;
41532;SDS011;27262;-35.248;149.138;2022-11-02T04:26:19;3.58;;;0.70;;
41532;SDS011;27262;-35.248;149.138;2022-11-02T04:28:50;4.65;;;1.15;;
41532;SDS011;27262;-35.248;149.138;2022-11-02T04:31:20;3.30;;;0.60;;
41532;SDS011;27262;-35.248;149.138;2022-11-02T04:33:50;3.03;;;0.80;;
41532;SDS011;27262;-35.248;149.138;2022-11-02T04:36:21;3.42;;;0.68;;
41532;SDS011;27262;-35.248;149.138;2022-11-02T04:38:51;3.08;;;0.80;;
41532;SDS011;27262;-35.248;149.138;2022-11-02T04:41:22;4.63;;;0.60;;
41532;SDS011;27262;-35.248;149.138;2022-11-02T04:44:11;8.70;;;1.20;;
41532;SDS011;27262;-35.248;149.138;2022-11-02T04:46:43;5.63;;;0.93;;
41532;SDS011;27262;-35.248;149.138;2022-11-02T04:49:14;5.85;;;1.05;;
41532;SDS011;27262;-35.248;149.138;2022-11-02T04:51:44;5.13;;;0.60;;
41532;SDS011;27262;-35.248;149.138;2022-11-02T04:54:15;3.45;;;0.60;;
41532;SDS011;27262;-35.248;149.138;2022-11-02T04:56:46;4.15;;;0.77;;
41532;SDS011;27262;-35.248;149.138;2022-11-02T04:59:16;9.05;;;1.27;;
41532;SDS011;27262;-35.248;149.138;2022-11-02T05:01:46;8.52;;;1.30;;
41532;SDS011;27262;-35.248;149.138;2022-11-02T05:04:17;6.10;;;0.90;;
41532;SDS011;27262;-35.248;149.138;2022-11-02T05:06:47;3.47;;;1.05;;
41532;SDS011;27262;-35.248;149.138;2022-11-02T05:09:18;4.78;;;0.80;;
41532;SDS011;27262;-35.248;149.138;2022-11-02T05:11:48;4.45;;;0.70;;
41532;SDS011;27262;-35.248;149.138;2022-11-02T05:14:18;2.13;;;0.65;;
41532;SDS011;27262;-35.248;149.138;2022-11-02T05:16:48;4.93;;;0.77;;
41532;SDS011;27262;-35.248;149.138;2022-11-02T05:19:19;2.67;;;0.50;;
41532;SDS011;27262;-35.248;149.138;2022-11-02T05:21:49;2.35;;;0.50;;
41532;SDS011;27262;-35.248;149.138;2022-11-02T05:24:19;2.53;;;0.60;;
41532;SDS011;27262;-35.248;149.138;2022-11-02T05:26:49;3.08;;;0.82;;
41532;SDS011;27262;-35.248;149.138;2022-11-02T05:29:20;5.43;;;0.90;;
41532;SDS011;27262;-35.248;149.138;2022-11-02T05:31:50;1.70;;;0.57;;
41532;SDS011;27262;-35.248;149.138;2022-11-02T05:34:20;5.10;;;0.50;;
41532;SDS011;27262;-35.248;149.138;2022-11-02T05:36:51;7.38;;;0.75;;
41532;SDS011;27262;-35.248;149.138;2022-11-02T05:39:21;1.73;;;0.40;;
41532;SDS011;27262;-35.248;149.138;2022-11-02T05:41:51;3.92;;;0.60;;
41532;SDS011;27262;-35.248;149.138;2022-11-02T05:44:22;5.20;;;0.85;;
41532;SDS011;27262;-35.248;149.138;2022-11-02T05:46:52;5.85;;;0.95;;
41532;SDS011;27262;-35.248;149.138;2022-11-02T05:49:22;4.35;;;0.65;;
41532;SDS011;27262;-35.248;149.138;2022-11-02T05:51:52;4.30;;;0.40;;
41532;SDS011;27262;-35.248;149.138;2022-11-02T05:54:23;2.95;;;0.57;;
41532;SDS011;27262;-35.248;149.138;2022-11-02T05:56:53;2.13;;;0.40;;
41532;SDS011;27262;-35.248;149.138;2022-11-02T05:59:24;3.00;;;0.70;;
41532;SDS011;27262;-35.248;149.138;2022-11-02T06:01:55;3.75;;;0.50;;
41532;SDS011;27262;-35.248;149.138;2022-11-02T06:04:25;1.83;;;0.52;;
41532;SDS011;27262;-35.248;149.138;2022-11-02T06:06:55;1.80;;;0.35;;
41532;SDS011;27262;-35.248;149.138;2022-11-02T06:09:26;5.28;;;0.70;;
41532;SDS011;27262;-35.248;149.138;2022-11-02T06:11:56;2.40;;;0.73;;
41532;SDS011;27262;-35.248;149.138;2022-11-02T06:14:26;2.72;;;0.73;;
41532;SDS011;27262;-35.248;149.138;2022-11-02T06:16:57;1.70;;;0.50;;
41532;SDS011;27262;-35.248;149.138;2022-11-02T06:19:27;3.13;;;0.43;;
41532;SDS011;27262;-35.248;149.138;2022-11-02T06:21:57;1.42;;;0.43;;
41532;SDS011;27262;-35.248;149.138;2022-11-02T06:24:27;2.75;;;0.60;;
41532;SDS011;27262;-35.248;149.138;2022-11-02T06:26:58;2.97;;;0.35;;
41532;SDS011;27262;-35.248;149.138;2022-11-02T06:29:28;3.38;;;0.47;;
41532;SDS011;27262;-35.248;149.138;2022-11-02T06:31:59;2.25;;;0.47;;
41532;SDS011;27262;-35.248;149.138;2022-11-02T06:34:29;2.75;;;0.52;;
41532;SDS011;27262;-35.248;149.138;2022-11-02T06:36:59;2.67;;;0.60;;
41532;SDS011;27262;-35.248;149.138;2022-11-02T06:39:29;3.42;;;0.63;;
41532;SDS011;27262;-35.248;149.138;2022-11-02T06:42:00;2.63;;;0.68;;
41532;SDS011;27262;-35.248;149.138;2022-11-02T06:44:31;1.55;;;0.50;;
41532;SDS011;27262;-35.248;149.138;2022-11-02T06:47:01;2.85;;;0.43;;
41532;SDS011;27262;-35.248;149.138;2022-11-02T06:49:31;5.30;;;0.73;;
41532;SDS011;27262;-35.248;149.138;2022-11-02T06:52:02;2.20;;;0.25;;
41532;SDS011;27262;-35.248;149.138;2022-11-02T06:54:32;2.00;;;0.40;;
41532;SDS011;27262;-35.248;149.138;2022-11-02T06:57:02;1.13;;;0.35;;
41532;SDS011;27262;-35.248;149.138;2022-11-02T06:59:32;3.30;;;0.38;;
41532;SDS011;27262;-35.248;149.138;2022-11-02T07:02:03;1.00;;;0.40;;
41532;SDS011;27262;-35.248;149.138;2022-11-02T07:04:33;0.60;;;0.38;;
41532;SDS011;27262;-35.248;149.138;2022-11-02T07:07:04;0.70;;;0.30;;
41532;SDS011;27262;-35.248;149.138;2022-11-02T07:09:34;0.82;;;0.28;;
41532;SDS011;27262;-35.248;149.138;2022-11-02T07:12:05;2.22;;;0.60;;
41532;SDS011;27262;-35.248;149.138;2022-11-02T07:14:35;2.10;;;0.60;;
41532;SDS011;27262;-35.248;149.138;2022-11-02T07:17:05;1.00;;;0.30;;
41532;SDS011;27262;-35.248;149.138;2022-11-02T07:19:36;1.30;;;0.40;;
41532;SDS011;27262;-35.248;149.138;2022-11-02T07:22:06;2.60;;;0.60;;
41532;SDS011;27262;-35.248;149.138;2022-11-02T07:24:36;3.22;;;0.28;;
41532;SDS011;27262;-35.248;149.138;2022-11-02T07:27:07;1.67;;;0.40;;
41532;SDS011;27262;-35.248;149.138;2022-11-02T07:29:37;1.85;;;0.30;;
41532;SDS011;27262;-35.248;149.138;2022-11-02T07:32:07;3.25;;;0.40;;
41532;SDS011;27262;-35.248;149.138;2022-11-02T07:34:37;2.22;;;0.52;;
41532;SDS011;27262;-35.248;149.138;2022-11-02T07:37:07;0.60;;;0.30;;
41532;SDS011;27262;-35.248;149.138;2022-11-02T07:39:38;0.77;;;0.30;;
41532;SDS011;27262;-35.248;149.138;2022-11-02T07:42:08;2.85;;;0.30;;
41532;SDS011;27262;-35.248;149.138;2022-11-02T07:44:38;0.93;;;0.35;;
41532;SDS011;27262;-35.248;149.138;2022-11-02T07:47:09;1.13;;;0.35;;
41532;SDS011;27262;-35.248;149.138;2022-11-02T07:49:39;1.17;;;0.40;;
41532;SDS011;27262;-35.248;149.138;2022-11-02T07:52:09;2.22;;;0.43;;
41532;SDS011;27262;-35.248;149.138;2022-11-02T07:54:39;0.55;;;0.30;;
41532;SDS011;27262;-35.248;149.138;2022-11-02T07:57:10;5.03;;;0.50;;
41532;SDS011;27262;-35.248;149.138;2022-11-02T07:59:41;3.38;;;0.30;;
41532;SDS011;27262;-35.248;149.138;2022-11-02T08:02:11;4.82;;;0.70;;
41532;SDS011;27262;-35.248;149.138;2022-11-02T08:04:41;3.72;;;0.40;;
41532;SDS011;27262;-35.248;149.138;2022-11-02T08:07:11;2.63;;;0.40;;
41532;SDS011;27262;-35.248;149.138;2022-11-02T08:09:42;2.67;;;0.40;;
41532;SDS011;27262;-35.248;149.138;2022-11-02T08:12:12;4.88;;;0.50;;
41532;SDS011;27262;-35.248;149.138;2022-11-02T08:14:42;3.95;;;0.65;;
41532;SDS011;27262;-35.248;149.138;2022-11-02T08:17:12;8.50;;;0.80;;
41532;SDS011;27262;-35.248;149.138;2022-11-02T08:19:42;3.83;;;0.60;;
41532;SDS011;27262;-35.248;149.138;2022-11-02T08:22:12;4.50;;;0.70;;
41532;SDS011;27262;-35.248;149.138;2022-11-02T08:24:43;3.20;;;0.63;;
41532;SDS011;27262;-35.248;149.138;2022-11-02T08:27:13;4.75;;;0.80;;
41532;SDS011;27262;-35.248;149.138;2022-11-02T08:29:43;2.47;;;0.57;;
41532;SDS011;27262;-35.248;149.138;2022-11-02T08:32:13;2.40;;;0.60;;
41532;SDS011;27262;-35.248;149.138;2022-11-02T08:34:44;3.55;;;0.40;;
41532;SDS011;27262;-35.248;149.138;2022-11-02T08:37:14;1.50;;;0.60;;
41532;SDS011;27262;-35.248;149.138;2022-11-02T08:39:44;2.47;;;0.60;;
41532;SDS011;27262;-35.248;149.138;2022-11-02T08:42:15;3.97;;;0.77;;
41532;SDS011;27262;-35.248;149.138;2022-11-02T08:44:45;5.80;;;0.52;;
41532;SDS011;27262;-35.248;149.138;2022-11-02T08:47:16;2.55;;;0.80;;
41532;SDS011;27262;-35.248;149.138;2022-11-02T08:49:46;2.28;;;0.50;;
41532;SDS011;27262;-35.248;149.138;2022-11-02T08:52:18;1.42;;;0.50;;
41532;SDS011;27262;-35.248;149.138;2022-11-02T08:54:49;3.63;;;0.60;;
41532;SDS011;27262;-35.248;149.138;2022-11-02T08:57:19;2.80;;;0.80;;
41532;SDS011;27262;-35.248;149.138;2022-11-02T08:59:49;2.67;;;0.63;;
41532;SDS011;27262;-35.248;149.138;2022-11-02T09:02:19;1.73;;;0.40;;
41532;SDS011;27262;-35.248;149.138;2022-11-02T09:04:50;1.90;;;0.43;;
41532;SDS011;27262;-35.248;149.138;2022-11-02T09:07:20;2.78;;;0.40;;
41532;SDS011;27262;-35.248;149.138;2022-11-02T09:09:50;2.50;;;0.30;;
41532;SDS011;27262;-35.248;149.138;2022-11-02T09:12:20;1.75;;;0.50;;
41532;SDS011;27262;-35.248;149.138;2022-11-02T09:14:51;1.83;;;0.50;;
41532;SDS011;27262;-35.248;149.138;2022-11-02T09:17:21;2.03;;;0.40;;
41532;SDS011;27262;-35.248;149.138;2022-11-02T09:19:51;1.65;;;0.43;;
41532;SDS011;27262;-35.248;149.138;2022-11-02T09:22:21;1.63;;;0.50;;
41532;SDS011;27262;-35.248;149.138;2022-11-02T09:24:52;1.35;;;0.50;;
41532;SDS011;27262;-35.248;149.138;2022-11-02T09:27:22;3.45;;;0.52;;
41532;SDS011;27262;-35.248;149.138;2022-11-02T09:29:52;1.98;;;0.57;;
41532;SDS011;27262;-35.248;149.138;2022-11-02T09:32:22;1.17;;;0.28;;
41532;SDS011;27262;-35.248;149.138;2022-11-02T09:34:52;0.82;;;0.40;;
41532;SDS011;27262;-35.248;149.138;2022-11-02T09:37:23;1.77;;;0.40;;
41532;SDS011;27262;-35.248;149.138;2022-11-02T09:39:53;3.47;;;0.52;;
41532;SDS011;27262;-35.248;149.138;2022-11-02T09:45:11;3.20;;;0.50;;
41532;SDS011;27262;-35.248;149.138;2022-11-02T09:47:46;2.92;;;0.60;;
41532;SDS011;27262;-35.248;149.138;2022-11-02T09:56:20;0.63;;;0.28;;
41532;SDS011;27262;-35.248;149.138;2022-11-02T09:58:59;1.08;;;0.40;;
41532;SDS011;27262;-35.248;149.138;2022-11-02T10:13:43;1.63;;;0.40;;
41532;SDS011;27262;-35.248;149.138;2022-11-02T10:19:37;1.38;;;0.25;;
41532;SDS011;27262;-35.248;149.138;2022-11-02T10:22:10;0.88;;;0.30;;
41532;SDS011;27262;-35.248;149.138;2022-11-02T10:24:44;0.80;;;0.35;;
41532;SDS011;27262;-35.248;149.138;2022-11-02T10:27:19;2.97;;;0.40;;
41532;SDS011;27262;-35.248;149.138;2022-11-02T10:29:53;1.00;;;0.40;;
41532;SDS011;27262;-35.248;149.138;2022-11-02T10:32:33;0.77;;;0.38;;
41532;SDS011;27262;-35.248;149.138;2022-11-02T10:35:05;2.08;;;0.45;;
41532;SDS011;27262;-35.248;149.138;2022-11-02T10:49:54;1.63;;;0.30;;
41532;SDS011;27262;-35.248;149.138;2022-11-02T10:52:46;1.02;;;0.40;;
41532;SDS011;27262;-35.248;149.138;2022-11-02T10:55:26;0.88;;;0.22;;
41532;SDS011;27262;-35.248;149.138;2022-11-02T10:58:05;3.63;;;0.50;;
41532;SDS011;27262;-35.248;149.138;2022-11-02T11:00:39;0.32;;;0.25;;
41532;SDS011;27262;-35.248;149.138;2022-11-02T11:08:29;0.77;;;0.38;;
41532;SDS011;27262;-35.248;149.138;2022-11-02T11:11:13;1.17;;;0.30;;
41532;SDS011;27262;-35.248;149.138;2022-11-02T11:13:57;1.90;;;0.30;;
41532;SDS011;27262;-35.248;149.138;2022-11-02T11:17:00;2.53;;;0.40;;
41532;SDS011;27262;-35.248;149.138;2022-11-02T11:19:51;0.73;;;0.22;;
41532;SDS011;27262;-35.248;149.138;2022-11-02T11:27:45;0.20;;;0.20;;
41532;SDS011;27262;-35.248;149.138;2022-11-02T11:30:24;3.92;;;0.28;;
41532;SDS011;27262;-35.248;149.138;2022-11-02T11:33:25;1.75;;;0.50;;
41532;SDS011;27262;-35.248;149.138;2022-11-02T11:35:55;0.75;;;0.30;;
41532;SDS011;27262;-35.248;149.138;2022-11-02T11:38:26;1.50;;;0.30;;
41532;SDS011;27262;-35.248;149.138;2022-11-02T11:40:59;1.48;;;0.52;;
41532;SDS011;27262;-35.248;149.138;2022-11-02T11:43:30;0.90;;;0.50;;
41532;SDS011;27262;-35.248;149.138;2022-11-02T11:46:06;1.30;;;0.50;;
41532;SDS011;27262;-35.248;149.138;2022-11-02T11:48:39;2.03;;;0.40;;
41532;SDS011;27262;-35.248;149.138;2022-11-02T11:51:25;0.52;;;0.28;;
41532;SDS011;27262;-35.248;149.138;2022-11-02T11:56:48;1.23;;;0.40;;
41532;SDS011;27262;-35.248;149.138;2022-11-02T11:59:21;1.85;;;0.40;;
41532;SDS011;27262;-35.248;149.138;2022-11-02T12:01:57;2.60;;;0.40;;
41532;SDS011;27262;-35.248;149.138;2022-11-02T12:04:31;0.60;;;0.30;;
41532;SDS011;27262;-35.248;149.138;2022-11-02T12:07:09;0.98;;;0.30;;
41532;SDS011;27262;-35.248;149.138;2022-11-02T12:09:45;0.60;;;0.20;;
41532;SDS011;27262;-35.248;149.138;2022-11-02T12:15:35;0.20;;;0.10;;
41532;SDS011;27262;-35.248;149.138;2022-11-02T12:21:08;1.15;;;0.20;;
41532;SDS011;27262;-35.248;149.138;2022-11-02T12:35:59;0.60;;;0.30;;
41532;SDS011;27262;-35.248;149.138;2022-11-02T12:47:22;0.45;;;0.28;;
41532;SDS011;27262;-35.248;149.138;2022-11-02T12:55:40;0.47;;;0.30;;
41532;SDS011;27262;-35.248;149.138;2022-11-02T12:58:22;1.13;;;0.28;;
41532;SDS011;27262;-35.248;149.138;2022-11-02T13:01:13;0.30;;;0.20;;
41532;SDS011;27262;-35.248;149.138;2022-11-02T13:06:41;0.35;;;0.30;;
41532;SDS011;27262;-35.248;149.138;2022-11-02T13:09:24;0.95;;;0.30;;
41532;SDS011;27262;-35.248;149.138;2022-11-02T13:12:15;1.00;;;0.30;;
41532;SDS011;27262;-35.248;149.138;2022-11-02T13:14:51;0.93;;;0.20;;
41532;SDS011;27262;-35.248;149.138;2022-11-02T13:17:30;0.63;;;0.30;;
41532;SDS011;27262;-35.248;149.138;2022-11-02T13:23:30;0.60;;;0.30;;
41532;SDS011;27262;-35.248;149.138;2022-11-02T13:26:31;0.70;;;0.22;;
41532;SDS011;27262;-35.248;149.138;2022-11-02T13:31:50;0.57;;;0.30;;
41532;SDS011;27262;-35.248;149.138;2022-11-02T13:34:33;0.73;;;0.30;;
41532;SDS011;27262;-35.248;149.138;2022-11-02T13:37:15;1.13;;;0.40;;
41532;SDS011;27262;-35.248;149.138;2022-11-02T13:40:20;1.00;;;0.30;;
41532;SDS011;27262;-35.248;149.138;2022-11-02T13:48:59;3.58;;;0.40;;
41532;SDS011;27262;-35.248;149.138;2022-11-02T13:51:43;0.88;;;0.38;;
41532;SDS011;27262;-35.248;149.138;2022-11-02T13:54:21;1.23;;;0.30;;
41532;SDS011;27262;-35.248;149.138;2022-11-02T13:56:58;0.20;;;0.20;;
41532;SDS011;27262;-35.248;149.138;2022-11-02T13:59:33;0.65;;;0.30;;
41532;SDS011;27262;-35.248;149.138;2022-11-02T14:02:21;1.10;;;0.32;;
41532;SDS011;27262;-35.248;149.138;2022-11-02T14:05:05;0.30;;;0.20;;
41532;SDS011;27262;-35.248;149.138;2022-11-02T14:07:38;0.28;;;0.20;;
41532;SDS011;27262;-35.248;149.138;2022-11-02T14:10:16;0.32;;;0.20;;
41532;SDS011;27262;-35.248;149.138;2022-11-02T14:12:49;0.20;;;0.15;;
41532;SDS011;27262;-35.248;149.138;2022-11-02T14:20:57;0.35;;;0.28;;
41532;SDS011;27262;-35.248;149.138;2022-11-02T14:26:28;0.63;;;0.30;;
41532;SDS011;27262;-35.248;149.138;2022-11-02T14:29:02;0.20;;;0.20;;
41532;SDS011;27262;-35.248;149.138;2022-11-02T14:31:37;0.90;;;0.40;;
41532;SDS011;27262;-35.248;149.138;2022-11-02T14:34:21;0.20;;;0.20;;
41532;SDS011;27262;-35.248;149.138;2022-11-02T14:39:52;0.60;;;0.30;;
41532;SDS011;27262;-35.248;149.138;2022-11-02T14:42:47;1.15;;;0.43;;
41532;SDS011;27262;-35.248;149.138;2022-11-02T14:48:15;0.55;;;0.30;;
41532;SDS011;27262;-35.248;149.138;2022-11-02T14:50:56;0.50;;;0.30;;
41532;SDS011;27262;-35.248;149.138;2022-11-02T14:53:35;0.32;;;0.30;;
41532;SDS011;27262;-35.248;149.138;2022-11-02T14:56:06;0.32;;;0.22;;
41532;SDS011;27262;-35.248;149.138;2022-11-02T14:58:50;1.02;;;0.50;;
41532;SDS011;27262;-35.248;149.138;2022-11-02T15:01:28;0.40;;;0.28;;
41532;SDS011;27262;-35.248;149.138;2022-11-02T15:04:05;0.20;;;0.20;;
41532;SDS011;27262;-35.248;149.138;2022-11-02T15:06:48;0.35;;;0.20;;
41532;SDS011;27262;-35.248;149.138;2022-11-02T15:10:32;0.90;;;0.20;;
41532;SDS011;27262;-35.248;149.138;2022-11-02T15:12:33;0.52;;;0.25;;
41532;SDS011;27262;-35.248;149.138;2022-11-02T15:21:41;0.80;;;0.32;;
41532;SDS011;27262;-35.248;149.138;2022-11-02T15:32:05;0.38;;;0.20;;
41532;SDS011;27262;-35.248;149.138;2022-11-02T15:34:49;1.45;;;0.30;;
41532;SDS011;27262;-35.248;149.138;2022-11-02T15:37:28;0.45;;;0.20;;
41532;SDS011;27262;-35.248;149.138;2022-11-02T15:49:06;0.63;;;0.32;;
41532;SDS011;27262;-35.248;149.138;2022-11-02T16:00:19;1.85;;;0.30;;
41532;SDS011;27262;-35.248;149.138;2022-11-02T16:03:07;1.17;;;0.28;;
41532;SDS011;27262;-35.248;149.138;2022-11-02T16:05:50;0.88;;;0.20;;
41532;SDS011;27262;-35.248;149.138;2022-11-02T16:08:32;0.30;;;0.20;;
41532;SDS011;27262;-35.248;149.138;2022-11-02T16:11:39;1.27;;;0.40;;
41532;SDS011;27262;-35.248;149.138;2022-11-02T16:14:14;0.55;;;0.20;;
41532;SDS011;27262;-35.248;149.138;2022-11-02T16:16:49;0.20;;;0.20;;
41532;SDS011;27262;-35.248;149.138;2022-11-02T16:19:20;0.35;;;0.20;;
41532;SDS011;27262;-35.248;149.138;2022-11-02T16:21:50;0.50;;;0.20;;
41532;SDS011;27262;-35.248;149.138;2022-11-02T16:24:27;0.40;;;0.30;;
41532;SDS011;27262;-35.248;149.138;2022-11-02T16:26:57;0.45;;;0.28;;
41532;SDS011;27262;-35.248;149.138;2022-11-02T16:29:31;1.77;;;0.35;;
41532;SDS011;27262;-35.248;149.138;2022-11-02T16:32:04;0.20;;;0.20;;
41532;SDS011;27262;-35.248;149.138;2022-11-02T16:34:40;1.02;;;0.20;;
41532;SDS011;27262;-35.248;149.138;2022-11-02T16:37:12;0.52;;;0.30;;
41532;SDS011;27262;-35.248;149.138;2022-11-02T16:39:45;0.38;;;0.15;;
41532;SDS011;27262;-35.248;149.138;2022-11-02T16:42:21;0.63;;;0.20;;
41532;SDS011;27262;-35.248;149.138;2022-11-02T16:44:59;2.03;;;0.50;;
41532;SDS011;27262;-35.248;149.138;2022-11-02T16:47:36;0.40;;;0.20;;
41532;SDS011;27262;-35.248;149.138;2022-11-02T16:50:20;1.05;;;0.40;;
41532;SDS011;27262;-35.248;149.138;2022-11-02T16:52:56;0.40;;;0.22;;
41532;SDS011;27262;-35.248;149.138;2022-11-02T16:55:39;0.75;;;0.30;;
41532;SDS011;27262;-35.248;149.138;2022-11-02T16:58:15;0.63;;;0.30;;
41532;SDS011;27262;-35.248;149.138;2022-11-02T17:01:01;1.17;;;0.47;;
41532;SDS011;27262;-35.248;149.138;2022-11-02T17:03:35;0.35;;;0.30;;
41532;SDS011;27262;-35.248;149.138;2022-11-02T17:06:05;0.20;;;0.20;;
41532;SDS011;27262;-35.248;149.138;2022-11-02T17:08:36;0.68;;;0.30;;
41532;SDS011;27262;-35.248;149.138;2022-11-02T17:11:12;0.80;;;0.30;;
41532;SDS011;27262;-35.248;149.138;2022-11-02T17:13:46;0.35;;;0.20;;
41532;SDS011;27262;-35.248;149.138;2022-11-02T17:16:22;0.32;;;0.30;;
41532;SDS011;27262;-35.248;149.138;2022-11-02T17:18:53;0.32;;;0.22;;
41532;SDS011;27262;-35.248;149.138;2022-11-02T17:21:27;1.23;;;0.30;;
41532;SDS011;27262;-35.248;149.138;2022-11-02T17:23:58;0.50;;;0.20;;
41532;SDS011;27262;-35.248;149.138;2022-11-02T17:26:48;0.20;;;0.15;;
41532;SDS011;27262;-35.248;149.138;2022-11-02T17:29:38;0.70;;;0.20;;
41532;SDS011;27262;-35.248;149.138;2022-11-02T17:32:12;0.85;;;0.20;;
41532;SDS011;27262;-35.248;149.138;2022-11-02T17:34:51;0.95;;;0.30;;
41532;SDS011;27262;-35.248;149.138;2022-11-02T17:37:24;0.20;;;0.20;;
41532;SDS011;27262;-35.248;149.138;2022-11-02T17:39:59;0.50;;;0.30;;
41532;SDS011;27262;-35.248;149.138;2022-11-02T17:42:30;0.20;;;0.20;;
41532;SDS011;27262;-35.248;149.138;2022-11-02T17:45:22;0.20;;;0.20;;
41532;SDS011;27262;-35.248;149.138;2022-11-02T17:47:55;0.45;;;0.28;;
41532;SDS011;27262;-35.248;149.138;2022-11-02T17:50:27;0.47;;;0.30;;